Vansant, VA (24656)

9:34 AM EST on January 22, 2017 (GMT -0500)
davidsandy | | Change Station

Elev 1312 ft 37.29 °N, 82.04 °W | Updated 33 minutes ago

Mostly Cloudy
Mostly Cloudy
45.1 °F
Feels Like 45 °F
N
1.1
Wind Variable Wind from WNW

Today
High -- | Low -- °F
--% Chance of Precip.
Yesterday
High -- | Low -- °F
Precip. -- in
Pressure 29.57 in
Visibility 10.0 miles
Clouds Scattered Clouds 1300 ft
Scattered Clouds 2000 ft
Mostly Cloudy 11000 ft
Windchill 45 °F
Dew Point 45 °F
Humidity 98%
Rainfall 0.02 in
Snow Depth Not available.
7:38 AM 5:42 PM
Waning Crescent, 26% visible
METAR KJFZ 221415Z AUTO 13010G16KT 10SM SCT013 SCT020 BKN110 11/09 A2957 RMK AO2 T01110091
Pressure 29.57 in
Visibility 10.0 miles
Clouds Scattered Clouds 1300 ft
Scattered Clouds 2000 ft
Mostly Cloudy 11000 ft
Windchill 45 °F
Dew Point 45 °F
Humidity 98%
Rainfall 0.02 in
Snow Depth Not available.
7:38 AM 5:42 PM
Waning Crescent, 26% visible
METAR KJFZ 221415Z AUTO 13010G16KT 10SM SCT013 SCT020 BKN110 11/09 A2957 RMK AO2 T01110091

Get Your Daily Forecast Email!

Thanks for signing up!

Be on the lookout for a verification email in your inbox.

You'll start receiving the daily forecast at 8 AM.

×

10-Day Weather Forecast

Almanac

Astronomy

Jan. 22, 2017 Rise Set
Actual Time
Civil Twilight
Nautical Twilight
Astronomical Twilight
Moon
Length of Visible Light
Length of Day
Tomorrow will be .
, % of the Moon is Illuminated

Today's Extremes

State Highs State Lows

Community

WunderPhotos

Upload Photos

1,962,540 photos uploaded!

WunderBlog® & News

Nearby

Air Quality

  Air Quality AQ Index Pollutant
Not available.

Snow Depth

Station Depth Elevation

Earthquake Activity

City Distance Mag. Time & Date
Minimum magnitude displayed is 2.5.

Coastal Water Temperatures

Place Temperature

Stations

Nearby Weather Stations

Station Location Temp. Windchill Dew Point Humidity Wind Precip. Elev Updated Type
                   

Watches & Warnings

There are currently no watches in effect.